sensor_id;sensor_type;location;lat;lon;timestamp;P1;durP1;ratioP1;P2;durP2;ratioP2
23088;SDS011;11713;48.506;8.966;2022-09-01T00:01:00;12.77;;;9.77;;
23088;SDS011;11713;48.506;8.966;2022-09-01T00:03:27;11.93;;;9.37;;
23088;SDS011;11713;48.506;8.966;2022-09-01T00:05:54;9.73;;;8.73;;
23088;SDS011;11713;48.506;8.966;2022-09-01T00:08:21;9.97;;;9.03;;
23088;SDS011;11713;48.506;8.966;2022-09-01T00:10:48;13.50;;;8.70;;
23088;SDS011;11713;48.506;8.966;2022-09-01T00:13:14;10.90;;;8.63;;
23088;SDS011;11713;48.506;8.966;2022-09-01T00:15:41;8.87;;;7.97;;
23088;SDS011;11713;48.506;8.966;2022-09-01T00:18:08;9.07;;;8.07;;
23088;SDS011;11713;48.506;8.966;2022-09-01T00:20:34;11.07;;;8.07;;
23088;SDS011;11713;48.506;8.966;2022-09-01T00:22:59;9.20;;;7.60;;
23088;SDS011;11713;48.506;8.966;2022-09-01T00:25:26;9.80;;;8.20;;
23088;SDS011;11713;48.506;8.966;2022-09-01T00:27:52;11.47;;;8.03;;
23088;SDS011;11713;48.506;8.966;2022-09-01T00:30:20;9.90;;;8.90;;
23088;SDS011;11713;48.506;8.966;2022-09-01T00:32:46;9.93;;;8.70;;
23088;SDS011;11713;48.506;8.966;2022-09-01T00:35:13;11.63;;;9.80;;
23088;SDS011;11713;48.506;8.966;2022-09-01T00:37:41;11.93;;;8.80;;
23088;SDS011;11713;48.506;8.966;2022-09-01T00:40:07;12.60;;;9.33;;
23088;SDS011;11713;48.506;8.966;2022-09-01T00:42:36;11.93;;;10.17;;
23088;SDS011;11713;48.506;8.966;2022-09-01T00:45:05;11.90;;;10.37;;
23088;SDS011;11713;48.506;8.966;2022-09-01T00:47:32;11.27;;;9.27;;
23088;SDS011;11713;48.506;8.966;2022-09-01T00:50:00;12.50;;;11.00;;
23088;SDS011;11713;48.506;8.966;2022-09-01T00:52:36;13.93;;;12.23;;
23088;SDS011;11713;48.506;8.966;2022-09-01T00:55:11;12.93;;;11.60;;
23088;SDS011;11713;48.506;8.966;2022-09-01T00:57:40;25.63;;;12.07;;
23088;SDS011;11713;48.506;8.966;2022-09-01T01:00:13;17.13;;;12.93;;
23088;SDS011;11713;48.506;8.966;2022-09-01T01:02:47;12.40;;;11.20;;
23088;SDS011;11713;48.506;8.966;2022-09-01T01:05:20;18.13;;;11.13;;
23088;SDS011;11713;48.506;8.966;2022-09-01T01:08:07;12.77;;;10.60;;
23088;SDS011;11713;48.506;8.966;2022-09-01T01:10:37;14.43;;;10.10;;
23088;SDS011;11713;48.506;8.966;2022-09-01T01:13:10;18.30;;;11.80;;
23088;SDS011;11713;48.506;8.966;2022-09-01T01:15:38;20.27;;;13.57;;
23088;SDS011;11713;48.506;8.966;2022-09-01T01:18:11;20.90;;;13.67;;
23088;SDS011;11713;48.506;8.966;2022-09-01T01:20:38;20.27;;;13.77;;
23088;SDS011;11713;48.506;8.966;2022-09-01T01:23:28;26.43;;;12.73;;
23088;SDS011;11713;48.506;8.966;2022-09-01T01:26:03;13.33;;;11.87;;
23088;SDS011;11713;48.506;8.966;2022-09-01T01:28:32;32.33;;;13.07;;
23088;SDS011;11713;48.506;8.966;2022-09-01T01:31:02;17.27;;;12.83;;
23088;SDS011;11713;48.506;8.966;2022-09-01T01:33:50;13.67;;;11.87;;
23088;SDS011;11713;48.506;8.966;2022-09-01T01:36:19;13.00;;;11.00;;
23088;SDS011;11713;48.506;8.966;2022-09-01T01:38:59;16.93;;;11.53;;
23088;SDS011;11713;48.506;8.966;2022-09-01T01:41:30;13.27;;;11.30;;
23088;SDS011;11713;48.506;8.966;2022-09-01T01:43:58;27.00;;;12.87;;
23088;SDS011;11713;48.506;8.966;2022-09-01T01:46:29;13.07;;;11.67;;
23088;SDS011;11713;48.506;8.966;2022-09-01T01:48:56;27.90;;;13.43;;
23088;SDS011;11713;48.506;8.966;2022-09-01T01:51:22;21.73;;;11.10;;
23088;SDS011;11713;48.506;8.966;2022-09-01T01:53:53;17.50;;;12.67;;
23088;SDS011;11713;48.506;8.966;2022-09-01T01:56:20;18.97;;;11.77;;
23088;SDS011;11713;48.506;8.966;2022-09-01T01:58:54;16.90;;;12.93;;
23088;SDS011;11713;48.506;8.966;2022-09-01T02:01:23;13.60;;;11.87;;
23088;SDS011;11713;48.506;8.966;2022-09-01T02:03:54;11.93;;;10.80;;
23088;SDS011;11713;48.506;8.966;2022-09-01T02:06:21;17.83;;;12.07;;
23088;SDS011;11713;48.506;8.966;2022-09-01T02:08:52;41.33;;;11.87;;
23088;SDS011;11713;48.506;8.966;2022-09-01T02:11:25;14.37;;;11.20;;
23088;SDS011;11713;48.506;8.966;2022-09-01T02:13:53;15.90;;;12.10;;
23088;SDS011;11713;48.506;8.966;2022-09-01T02:16:24;16.87;;;12.10;;
23088;SDS011;11713;48.506;8.966;2022-09-01T02:18:52;20.20;;;10.57;;
23088;SDS011;11713;48.506;8.966;2022-09-01T02:21:19;10.83;;;9.37;;
23088;SDS011;11713;48.506;8.966;2022-09-01T02:23:51;10.47;;;9.33;;
23088;SDS011;11713;48.506;8.966;2022-09-01T02:26:26;12.10;;;10.90;;
23088;SDS011;11713;48.506;8.966;2022-09-01T02:28:58;19.60;;;10.97;;
23088;SDS011;11713;48.506;8.966;2022-09-01T02:31:30;21.37;;;10.83;;
23088;SDS011;11713;48.506;8.966;2022-09-01T02:34:00;27.80;;;11.10;;
23088;SDS011;11713;48.506;8.966;2022-09-01T02:36:26;10.43;;;9.43;;
23088;SDS011;11713;48.506;8.966;2022-09-01T02:38:53;17.73;;;9.40;;
23088;SDS011;11713;48.506;8.966;2022-09-01T02:41:19;15.87;;;10.10;;
23088;SDS011;11713;48.506;8.966;2022-09-01T02:43:48;14.47;;;9.87;;
23088;SDS011;11713;48.506;8.966;2022-09-01T02:46:14;13.30;;;10.33;;
23088;SDS011;11713;48.506;8.966;2022-09-01T02:48:41;15.67;;;10.80;;
23088;SDS011;11713;48.506;8.966;2022-09-01T02:51:12;36.27;;;13.50;;
23088;SDS011;11713;48.506;8.966;2022-09-01T02:53:46;15.87;;;11.97;;
23088;SDS011;11713;48.506;8.966;2022-09-01T02:56:18;14.20;;;12.50;;
23088;SDS011;11713;48.506;8.966;2022-09-01T02:58:48;14.83;;;11.77;;
23088;SDS011;11713;48.506;8.966;2022-09-01T03:01:16;16.57;;;11.83;;
23088;SDS011;11713;48.506;8.966;2022-09-01T03:03:47;18.90;;;13.00;;
23088;SDS011;11713;48.506;8.966;2022-09-01T03:06:15;13.67;;;12.27;;
23088;SDS011;11713;48.506;8.966;2022-09-01T03:08:44;16.43;;;13.87;;
23088;SDS011;11713;48.506;8.966;2022-09-01T03:11:11;15.63;;;13.37;;
23088;SDS011;11713;48.506;8.966;2022-09-01T03:13:39;15.90;;;14.13;;
23088;SDS011;11713;48.506;8.966;2022-09-01T03:16:06;19.07;;;14.80;;
23088;SDS011;11713;48.506;8.966;2022-09-01T03:18:33;14.70;;;13.23;;
23088;SDS011;11713;48.506;8.966;2022-09-01T03:21:01;18.83;;;15.27;;
23088;SDS011;11713;48.506;8.966;2022-09-01T03:23:29;16.77;;;14.97;;
23088;SDS011;11713;48.506;8.966;2022-09-01T03:25:56;15.90;;;14.30;;
23088;SDS011;11713;48.506;8.966;2022-09-01T03:28:22;16.57;;;14.93;;
23088;SDS011;11713;48.506;8.966;2022-09-01T03:30:50;17.50;;;15.80;;
23088;SDS011;11713;48.506;8.966;2022-09-01T03:33:18;17.37;;;14.30;;
23088;SDS011;11713;48.506;8.966;2022-09-01T03:35:46;15.20;;;13.60;;
23088;SDS011;11713;48.506;8.966;2022-09-01T03:38:13;14.57;;;13.10;;
23088;SDS011;11713;48.506;8.966;2022-09-01T03:40:50;13.37;;;11.90;;
23088;SDS011;11713;48.506;8.966;2022-09-01T03:43:18;12.37;;;11.27;;
23088;SDS011;11713;48.506;8.966;2022-09-01T03:45:47;13.40;;;12.03;;
23088;SDS011;11713;48.506;8.966;2022-09-01T03:48:14;13.93;;;11.60;;
23088;SDS011;11713;48.506;8.966;2022-09-01T03:50:41;14.10;;;12.07;;
23088;SDS011;11713;48.506;8.966;2022-09-01T03:53:18;15.33;;;12.03;;
23088;SDS011;11713;48.506;8.966;2022-09-01T03:55:47;13.57;;;12.27;;
23088;SDS011;11713;48.506;8.966;2022-09-01T03:58:15;13.60;;;11.90;;
23088;SDS011;11713;48.506;8.966;2022-09-01T04:00:46;15.57;;;12.10;;
23088;SDS011;11713;48.506;8.966;2022-09-01T04:03:13;12.70;;;11.50;;
23088;SDS011;11713;48.506;8.966;2022-09-01T04:05:46;13.00;;;11.80;;
23088;SDS011;11713;48.506;8.966;2022-09-01T04:08:12;14.27;;;12.87;;
23088;SDS011;11713;48.506;8.966;2022-09-01T04:10:42;12.90;;;11.33;;
23088;SDS011;11713;48.506;8.966;2022-09-01T04:13:12;15.20;;;11.07;;
23088;SDS011;11713;48.506;8.966;2022-09-01T04:15:38;32.47;;;11.57;;
23088;SDS011;11713;48.506;8.966;2022-09-01T04:18:04;12.50;;;11.30;;
23088;SDS011;11713;48.506;8.966;2022-09-01T04:20:55;12.70;;;11.50;;
23088;SDS011;11713;48.506;8.966;2022-09-01T04:23:24;15.47;;;13.57;;
23088;SDS011;11713;48.506;8.966;2022-09-01T04:28:25;23.70;;;15.50;;
23088;SDS011;11713;48.506;8.966;2022-09-01T04:30:58;16.47;;;14.70;;
23088;SDS011;11713;48.506;8.966;2022-09-01T04:33:31;15.17;;;13.63;;
23088;SDS011;11713;48.506;8.966;2022-09-01T04:36:12;16.60;;;15.00;;
23088;SDS011;11713;48.506;8.966;2022-09-01T04:38:45;15.83;;;14.30;;
23088;SDS011;11713;48.506;8.966;2022-09-01T04:41:12;16.73;;;15.03;;
23088;SDS011;11713;48.506;8.966;2022-09-01T04:43:45;17.60;;;15.83;;
23088;SDS011;11713;48.506;8.966;2022-09-01T04:46:13;16.17;;;14.47;;
23088;SDS011;11713;48.506;8.966;2022-09-01T04:48:40;17.03;;;15.37;;
23088;SDS011;11713;48.506;8.966;2022-09-01T04:51:08;15.10;;;13.70;;
23088;SDS011;11713;48.506;8.966;2022-09-01T04:53:49;16.37;;;14.73;;
23088;SDS011;11713;48.506;8.966;2022-09-01T04:56:16;18.40;;;15.40;;
23088;SDS011;11713;48.506;8.966;2022-09-01T04:58:46;16.93;;;15.33;;
23088;SDS011;11713;48.506;8.966;2022-09-01T05:01:16;15.30;;;13.87;;
23088;SDS011;11713;48.506;8.966;2022-09-01T05:03:44;17.40;;;15.70;;
23088;SDS011;11713;48.506;8.966;2022-09-01T05:06:32;16.37;;;14.77;;
23088;SDS011;11713;48.506;8.966;2022-09-01T05:08:58;16.47;;;14.77;;
23088;SDS011;11713;48.506;8.966;2022-09-01T05:11:40;17.70;;;15.80;;
23088;SDS011;11713;48.506;8.966;2022-09-01T05:14:17;18.47;;;16.63;;
23088;SDS011;11713;48.506;8.966;2022-09-01T05:16:45;18.43;;;16.57;;
23088;SDS011;11713;48.506;8.966;2022-09-01T05:19:11;18.93;;;16.93;;
23088;SDS011;11713;48.506;8.966;2022-09-01T05:21:43;18.83;;;16.83;;
23088;SDS011;11713;48.506;8.966;2022-09-01T05:24:11;18.20;;;16.30;;
23088;SDS011;11713;48.506;8.966;2022-09-01T05:26:40;19.80;;;17.70;;
23088;SDS011;11713;48.506;8.966;2022-09-01T05:29:08;19.07;;;17.27;;
23088;SDS011;11713;48.506;8.966;2022-09-01T05:31:39;19.73;;;17.83;;
23088;SDS011;11713;48.506;8.966;2022-09-01T05:34:07;18.07;;;16.10;;
23088;SDS011;11713;48.506;8.966;2022-09-01T05:36:37;18.43;;;16.63;;
23088;SDS011;11713;48.506;8.966;2022-09-01T05:39:08;18.03;;;16.23;;
23088;SDS011;11713;48.506;8.966;2022-09-01T05:41:38;20.93;;;17.33;;
23088;SDS011;11713;48.506;8.966;2022-09-01T05:44:07;17.97;;;16.17;;
23088;SDS011;11713;48.506;8.966;2022-09-01T05:46:35;19.07;;;17.13;;
23088;SDS011;11713;48.506;8.966;2022-09-01T05:49:03;17.87;;;15.97;;
23088;SDS011;11713;48.506;8.966;2022-09-01T05:51:35;19.17;;;17.17;;
23088;SDS011;11713;48.506;8.966;2022-09-01T05:54:02;19.40;;;17.50;;
23088;SDS011;11713;48.506;8.966;2022-09-01T05:56:33;19.80;;;17.80;;
23088;SDS011;11713;48.506;8.966;2022-09-01T05:59:03;20.37;;;17.50;;
23088;SDS011;11713;48.506;8.966;2022-09-01T06:01:29;18.30;;;16.40;;
23088;SDS011;11713;48.506;8.966;2022-09-01T06:04:01;18.73;;;16.70;;
23088;SDS011;11713;48.506;8.966;2022-09-01T06:06:48;18.90;;;16.90;;
23088;SDS011;11713;48.506;8.966;2022-09-01T06:09:16;19.50;;;17.20;;
23088;SDS011;11713;48.506;8.966;2022-09-01T06:11:45;19.17;;;17.27;;
23088;SDS011;11713;48.506;8.966;2022-09-01T06:14:13;21.03;;;18.83;;
23088;SDS011;11713;48.506;8.966;2022-09-01T06:16:42;18.73;;;16.90;;
23088;SDS011;11713;48.506;8.966;2022-09-01T06:19:09;20.03;;;17.97;;
23088;SDS011;11713;48.506;8.966;2022-09-01T06:21:40;18.97;;;16.97;;
23088;SDS011;11713;48.506;8.966;2022-09-01T06:24:06;22.47;;;17.93;;
23088;SDS011;11713;48.506;8.966;2022-09-01T06:26:33;18.70;;;16.83;;
23088;SDS011;11713;48.506;8.966;2022-09-01T06:29:03;18.40;;;16.50;;
23088;SDS011;11713;48.506;8.966;2022-09-01T06:31:43;18.97;;;16.97;;
23088;SDS011;11713;48.506;8.966;2022-09-01T06:34:16;22.47;;;16.57;;
23088;SDS011;11713;48.506;8.966;2022-09-01T06:36:44;18.40;;;16.50;;
23088;SDS011;11713;48.506;8.966;2022-09-01T06:39:13;16.37;;;14.67;;
23088;SDS011;11713;48.506;8.966;2022-09-01T06:41:50;16.67;;;14.97;;
23088;SDS011;11713;48.506;8.966;2022-09-01T06:44:25;19.10;;;17.20;;
23088;SDS011;11713;48.506;8.966;2022-09-01T06:46:59;16.23;;;14.53;;
23088;SDS011;11713;48.506;8.966;2022-09-01T06:49:25;16.77;;;15.00;;
23088;SDS011;11713;48.506;8.966;2022-09-01T06:52:07;19.73;;;17.77;;
23088;SDS011;11713;48.506;8.966;2022-09-01T06:54:33;20.27;;;18.23;;
23088;SDS011;11713;48.506;8.966;2022-09-01T06:57:03;20.43;;;18.27;;
23088;SDS011;11713;48.506;8.966;2022-09-01T06:59:30;21.77;;;19.47;;
23088;SDS011;11713;48.506;8.966;2022-09-01T07:01:58;19.93;;;17.93;;
23088;SDS011;11713;48.506;8.966;2022-09-01T07:04:41;20.63;;;18.43;;
23088;SDS011;11713;48.506;8.966;2022-09-01T07:07:08;21.93;;;19.47;;
23088;SDS011;11713;48.506;8.966;2022-09-01T07:10:04;23.63;;;20.93;;
23088;SDS011;11713;48.506;8.966;2022-09-01T07:12:36;21.57;;;19.37;;
23088;SDS011;11713;48.506;8.966;2022-09-01T07:15:06;21.70;;;19.50;;
23088;SDS011;11713;48.506;8.966;2022-09-01T07:17:32;19.83;;;17.83;;
23088;SDS011;11713;48.506;8.966;2022-09-01T07:19:59;20.30;;;18.13;;
23088;SDS011;11713;48.506;8.966;2022-09-01T07:22:25;20.17;;;18.17;;
23088;SDS011;11713;48.506;8.966;2022-09-01T07:24:51;20.03;;;18.03;;
23088;SDS011;11713;48.506;8.966;2022-09-01T07:27:45;22.53;;;18.93;;
23088;SDS011;11713;48.506;8.966;2022-09-01T07:30:15;21.77;;;18.53;;
23088;SDS011;11713;48.506;8.966;2022-09-01T07:32:43;19.93;;;17.93;;
23088;SDS011;11713;48.506;8.966;2022-09-01T07:35:12;20.40;;;18.20;;
23088;SDS011;11713;48.506;8.966;2022-09-01T07:37:39;18.90;;;16.97;;
23088;SDS011;11713;48.506;8.966;2022-09-01T07:40:06;18.87;;;16.77;;
23088;SDS011;11713;48.506;8.966;2022-09-01T07:43:07;19.17;;;17.27;;
23088;SDS011;11713;48.506;8.966;2022-09-01T07:45:58;17.70;;;15.80;;
23088;SDS011;11713;48.506;8.966;2022-09-01T07:48:30;17.43;;;15.63;;
23088;SDS011;11713;48.506;8.966;2022-09-01T07:50:55;19.00;;;17.10;;
23088;SDS011;11713;48.506;8.966;2022-09-01T07:53:26;16.27;;;14.57;;
23088;SDS011;11713;48.506;8.966;2022-09-01T07:55:59;15.37;;;13.90;;
23088;SDS011;11713;48.506;8.966;2022-09-01T07:58:37;16.20;;;14.63;;
23088;SDS011;11713;48.506;8.966;2022-09-01T08:01:13;16.00;;;12.87;;
23088;SDS011;11713;48.506;8.966;2022-09-01T08:03:46;15.23;;;13.63;;
23088;SDS011;11713;48.506;8.966;2022-09-01T08:06:14;13.75;;;12.40;;
23088;SDS011;11713;48.506;8.966;2022-09-01T08:08:49;14.45;;;13.00;;
23088;SDS011;11713;48.506;8.966;2022-09-01T08:11:20;14.73;;;13.32;;
23088;SDS011;11713;48.506;8.966;2022-09-01T08:13:51;14.65;;;13.15;;
23088;SDS011;11713;48.506;8.966;2022-09-01T08:16:18;12.95;;;11.65;;
23088;SDS011;11713;48.506;8.966;2022-09-01T08:18:47;14.95;;;13.55;;
23088;SDS011;11713;48.506;8.966;2022-09-01T08:21:23;13.32;;;12.02;;
23088;SDS011;11713;48.506;8.966;2022-09-01T08:24:16;12.10;;;10.95;;
23088;SDS011;11713;48.506;8.966;2022-09-01T08:26:44;12.90;;;11.60;;
23088;SDS011;11713;48.506;8.966;2022-09-01T08:29:10;12.65;;;11.38;;
23088;SDS011;11713;48.506;8.966;2022-09-01T08:31:40;13.02;;;11.68;;
23088;SDS011;11713;48.506;8.966;2022-09-01T08:34:06;13.10;;;11.77;;
23088;SDS011;11713;48.506;8.966;2022-09-01T08:36:33;13.35;;;11.95;;
23088;SDS011;11713;48.506;8.966;2022-09-01T08:38:59;10.38;;;9.38;;
23088;SDS011;11713;48.506;8.966;2022-09-01T08:44:38;10.10;;;9.20;;
23088;SDS011;11713;48.506;8.966;2022-09-01T08:47:14;9.00;;;8.10;;
23088;SDS011;11713;48.506;8.966;2022-09-01T08:49:43;9.40;;;8.43;;
23088;SDS011;11713;48.506;8.966;2022-09-01T08:54:56;8.50;;;7.70;;
23088;SDS011;11713;48.506;8.966;2022-09-01T08:57:36;7.65;;;6.78;;
23088;SDS011;11713;48.506;8.966;2022-09-01T09:00:20;7.53;;;6.82;;
23088;SDS011;11713;48.506;8.966;2022-09-01T09:03:01;8.77;;;7.28;;
23088;SDS011;11713;48.506;8.966;2022-09-01T09:11:00;7.32;;;6.63;;
23088;SDS011;11713;48.506;8.966;2022-09-01T09:19:22;6.80;;;6.20;;
23088;SDS011;11713;48.506;8.966;2022-09-01T09:21:57;6.68;;;5.78;;
23088;SDS011;11713;48.506;8.966;2022-09-01T09:24:27;5.18;;;4.50;;
23088;SDS011;11713;48.506;8.966;2022-09-01T09:27:21;5.38;;;4.88;;
23088;SDS011;11713;48.506;8.966;2022-09-01T09:29:50;6.05;;;5.45;;
23088;SDS011;11713;48.506;8.966;2022-09-01T09:32:21;4.90;;;4.50;;
23088;SDS011;11713;48.506;8.966;2022-09-01T09:34:49;5.05;;;4.65;;
23088;SDS011;11713;48.506;8.966;2022-09-01T09:37:20;5.50;;;4.88;;
23088;SDS011;11713;48.506;8.966;2022-09-01T09:42:27;5.93;;;5.28;;
23088;SDS011;11713;48.506;8.966;2022-09-01T09:44:53;5.28;;;4.78;;
23088;SDS011;11713;48.506;8.966;2022-09-01T09:47:54;6.50;;;5.38;;
23088;SDS011;11713;48.506;8.966;2022-09-01T09:50:13;5.88;;;5.38;;
23088;SDS011;11713;48.506;8.966;2022-09-01T09:52:41;6.22;;;5.68;;
23088;SDS011;11713;48.506;8.966;2022-09-01T09:55:29;5.97;;;5.38;;
23088;SDS011;11713;48.506;8.966;2022-09-01T09:57:57;5.35;;;4.88;;
23088;SDS011;11713;48.506;8.966;2022-09-01T10:02:59;4.95;;;4.53;;
23088;SDS011;11713;48.506;8.966;2022-09-01T10:05:47;5.70;;;4.43;;
23088;SDS011;11713;48.506;8.966;2022-09-01T10:10:58;5.90;;;4.93;;
23088;SDS011;11713;48.506;8.966;2022-09-01T10:13:26;5.47;;;4.47;;
23088;SDS011;11713;48.506;8.966;2022-09-01T10:15:57;5.25;;;4.45;;
23088;SDS011;11713;48.506;8.966;2022-09-01T10:18:37;5.07;;;4.07;;
23088;SDS011;11713;48.506;8.966;2022-09-01T10:21:14;5.40;;;4.20;;
23088;SDS011;11713;48.506;8.966;2022-09-01T10:23:42;6.38;;;4.63;;
23088;SDS011;11713;48.506;8.966;2022-09-01T10:26:18;5.35;;;4.30;;
23088;SDS011;11713;48.506;8.966;2022-09-01T10:28:56;3.92;;;3.50;;
23088;SDS011;11713;48.506;8.966;2022-09-01T10:31:26;4.90;;;3.72;;
23088;SDS011;11713;48.506;8.966;2022-09-01T10:33:53;5.07;;;3.22;;
23088;SDS011;11713;48.506;8.966;2022-09-01T10:36:20;4.80;;;3.90;;
23088;SDS011;11713;48.506;8.966;2022-09-01T10:38:46;3.75;;;3.30;;
23088;SDS011;11713;48.506;8.966;2022-09-01T10:44:24;4.10;;;3.05;;
23088;SDS011;11713;48.506;8.966;2022-09-01T10:47:08;3.05;;;2.85;;
23088;SDS011;11713;48.506;8.966;2022-09-01T10:52:51;3.17;;;2.97;;
23088;SDS011;11713;48.506;8.966;2022-09-01T10:55:23;3.08;;;2.88;;
23088;SDS011;11713;48.506;8.966;2022-09-01T11:00:58;2.97;;;2.78;;
23088;SDS011;11713;48.506;8.966;2022-09-01T11:09:00;3.15;;;2.95;;
23088;SDS011;11713;48.506;8.966;2022-09-01T11:11:41;3.03;;;2.83;;
23088;SDS011;11713;48.506;8.966;2022-09-01T11:14:51;3.00;;;2.70;;
23088;SDS011;11713;48.506;8.966;2022-09-01T11:19:46;2.72;;;2.53;;
23088;SDS011;11713;48.506;8.966;2022-09-01T11:22:31;2.97;;;2.70;;
23088;SDS011;11713;48.506;8.966;2022-09-01T11:30:23;3.10;;;2.72;;
23088;SDS011;11713;48.506;8.966;2022-09-01T11:35:42;2.80;;;2.60;;
23088;SDS011;11713;48.506;8.966;2022-09-01T11:38:10;3.90;;;2.65;;
23088;SDS011;11713;48.506;8.966;2022-09-01T11:40:39;3.10;;;2.75;;
23088;SDS011;11713;48.506;8.966;2022-09-01T11:43:14;4.65;;;3.00;;
23088;SDS011;11713;48.506;8.966;2022-09-01T11:46:02;5.53;;;3.25;;
23088;SDS011;11713;48.506;8.966;2022-09-01T11:48:36;3.10;;;2.90;;
23088;SDS011;11713;48.506;8.966;2022-09-01T11:51:03;3.53;;;3.05;;
23088;SDS011;11713;48.506;8.966;2022-09-01T11:53:30;3.40;;;3.10;;
23088;SDS011;11713;48.506;8.966;2022-09-01T11:56:09;3.00;;;2.80;;
23088;SDS011;11713;48.506;8.966;2022-09-01T11:58:56;3.35;;;2.78;;
23088;SDS011;11713;48.506;8.966;2022-09-01T12:03:57;3.20;;;2.90;;
23088;SDS011;11713;48.506;8.966;2022-09-01T12:09:20;4.72;;;3.03;;
23088;SDS011;11713;48.506;8.966;2022-09-01T12:11:46;2.88;;;2.67;;
23088;SDS011;11713;48.506;8.966;2022-09-01T12:14:18;2.55;;;2.35;;
23088;SDS011;11713;48.506;8.966;2022-09-01T12:16:54;3.00;;;2.80;;
23088;SDS011;11713;48.506;8.966;2022-09-01T12:19:27;3.00;;;2.80;;
23088;SDS011;11713;48.506;8.966;2022-09-01T12:21:57;2.97;;;2.78;;
23088;SDS011;11713;48.506;8.966;2022-09-01T12:24:27;3.03;;;2.70;;
23088;SDS011;11713;48.506;8.966;2022-09-01T12:26:58;3.50;;;2.67;;
23088;SDS011;11713;48.506;8.966;2022-09-01T12:29:25;2.78;;;2.58;;
23088;SDS011;11713;48.506;8.966;2022-09-01T12:31:52;3.10;;;2.90;;
23088;SDS011;11713;48.506;8.966;2022-09-01T12:34:25;2.80;;;2.60;;
23088;SDS011;11713;48.506;8.966;2022-09-01T12:39:35;3.58;;;2.65;;
23088;SDS011;11713;48.506;8.966;2022-09-01T12:44:45;3.85;;;2.75;;
23088;SDS011;11713;48.506;8.966;2022-09-01T12:50:00;2.60;;;2.40;;
23088;SDS011;11713;48.506;8.966;2022-09-01T12:52:27;2.80;;;2.60;;
23088;SDS011;11713;48.506;8.966;2022-09-01T12:57:26;3.00;;;2.80;;
23088;SDS011;11713;48.506;8.966;2022-09-01T13:03:13;2.95;;;2.75;;
23088;SDS011;11713;48.506;8.966;2022-09-01T13:05:45;3.03;;;2.38;;
23088;SDS011;11713;48.506;8.966;2022-09-01T13:08:17;2.60;;;2.40;;
23088;SDS011;11713;48.506;8.966;2022-09-01T13:11:03;2.75;;;2.40;;
23088;SDS011;11713;48.506;8.966;2022-09-01T13:13:34;2.88;;;2.53;;
23088;SDS011;11713;48.506;8.966;2022-09-01T13:16:00;3.22;;;2.60;;
23088;SDS011;11713;48.506;8.966;2022-09-01T13:18:32;2.58;;;2.38;;
23088;SDS011;11713;48.506;8.966;2022-09-01T13:20:59;2.50;;;2.30;;
23088;SDS011;11713;48.506;8.966;2022-09-01T13:23:25;2.30;;;2.10;;
23088;SDS011;11713;48.506;8.966;2022-09-01T13:25:51;2.50;;;2.30;;
23088;SDS011;11713;48.506;8.966;2022-09-01T13:28:17;2.67;;;2.47;;
23088;SDS011;11713;48.506;8.966;2022-09-01T13:30:45;2.88;;;2.63;;
23088;SDS011;11713;48.506;8.966;2022-09-01T13:33:17;3.30;;;2.50;;
23088;SDS011;11713;48.506;8.966;2022-09-01T13:35:43;2.53;;;2.42;;
23088;SDS011;11713;48.506;8.966;2022-09-01T13:38:09;2.63;;;2.38;;
23088;SDS011;11713;48.506;8.966;2022-09-01T13:40:35;2.97;;;2.63;;
23088;SDS011;11713;48.506;8.966;2022-09-01T13:43:01;2.50;;;2.30;;
23088;SDS011;11713;48.506;8.966;2022-09-01T13:45:28;2.53;;;2.33;;
23088;SDS011;11713;48.506;8.966;2022-09-01T13:47:55;4.47;;;2.65;;
23088;SDS011;11713;48.506;8.966;2022-09-01T13:50:26;2.92;;;2.72;;
23088;SDS011;11713;48.506;8.966;2022-09-01T13:52:55;2.80;;;2.60;;
23088;SDS011;11713;48.506;8.966;2022-09-01T13:55:23;3.72;;;2.50;;
23088;SDS011;11713;48.506;8.966;2022-09-01T13:57:53;2.85;;;2.63;;
23088;SDS011;11713;48.506;8.966;2022-09-01T14:00:21;3.13;;;2.83;;
23088;SDS011;11713;48.506;8.966;2022-09-01T14:02:50;2.65;;;2.53;;
23088;SDS011;11713;48.506;8.966;2022-09-01T14:05:20;2.92;;;2.72;;
23088;SDS011;11713;48.506;8.966;2022-09-01T14:07:53;3.30;;;2.50;;
23088;SDS011;11713;48.506;8.966;2022-09-01T14:10:20;2.90;;;2.70;;
23088;SDS011;11713;48.506;8.966;2022-09-01T14:12:47;2.70;;;2.50;;
23088;SDS011;11713;48.506;8.966;2022-09-01T14:15:13;2.72;;;2.53;;
23088;SDS011;11713;48.506;8.966;2022-09-01T14:17:42;3.03;;;2.60;;
23088;SDS011;11713;48.506;8.966;2022-09-01T14:20:12;3.28;;;2.97;;
23088;SDS011;11713;48.506;8.966;2022-09-01T14:22:45;2.95;;;2.75;;
23088;SDS011;11713;48.506;8.966;2022-09-01T14:25:13;2.95;;;2.75;;
23088;SDS011;11713;48.506;8.966;2022-09-01T14:27:41;2.90;;;2.58;;
23088;SDS011;11713;48.506;8.966;2022-09-01T14:30:17;3.45;;;2.58;;
23088;SDS011;11713;48.506;8.966;2022-09-01T14:32:46;3.13;;;2.80;;
23088;SDS011;11713;48.506;8.966;2022-09-01T14:35:14;2.90;;;2.70;;
23088;SDS011;11713;48.506;8.966;2022-09-01T14:37:42;2.78;;;2.58;;
23088;SDS011;11713;48.506;8.966;2022-09-01T14:40:10;2.75;;;2.55;;
23088;SDS011;11713;48.506;8.966;2022-09-01T14:42:42;2.83;;;2.63;;
23088;SDS011;11713;48.506;8.966;2022-09-01T14:45:21;3.30;;;3.05;;
23088;SDS011;11713;48.506;8.966;2022-09-01T14:47:51;3.22;;;2.92;;
23088;SDS011;11713;48.506;8.966;2022-09-01T14:50:20;3.45;;;3.08;;
23088;SDS011;11713;48.506;8.966;2022-09-01T14:52:47;2.63;;;2.42;;
23088;SDS011;11713;48.506;8.966;2022-09-01T14:55:14;3.03;;;2.83;;
23088;SDS011;11713;48.506;8.966;2022-09-01T14:57:44;2.88;;;2.67;;
23088;SDS011;11713;48.506;8.966;2022-09-01T15:00:11;5.72;;;2.72;;
23088;SDS011;11713;48.506;8.966;2022-09-01T15:02:39;3.20;;;2.90;;
23088;SDS011;11713;48.506;8.966;2022-09-01T15:05:06;4.18;;;2.78;;
23088;SDS011;11713;48.506;8.966;2022-09-01T15:07:34;3.70;;;2.65;;
23088;SDS011;11713;48.506;8.966;2022-09-01T15:10:00;2.67;;;2.47;;
23088;SDS011;11713;48.506;8.966;2022-09-01T15:12:27;2.72;;;2.53;;
23088;SDS011;11713;48.506;8.966;2022-09-01T15:14:56;2.33;;;2.00;;
23088;SDS011;11713;48.506;8.966;2022-09-01T15:17:24;2.60;;;2.33;;
23088;SDS011;11713;48.506;8.966;2022-09-01T15:19:50;3.58;;;2.63;;
23088;SDS011;11713;48.506;8.966;2022-09-01T15:22:16;2.63;;;2.42;;
23088;SDS011;11713;48.506;8.966;2022-09-01T15:24:43;2.60;;;2.28;;
23088;SDS011;11713;48.506;8.966;2022-09-01T15:27:11;3.65;;;3.35;;
23088;SDS011;11713;48.506;8.966;2022-09-01T15:29:37;3.20;;;2.90;;
23088;SDS011;11713;48.506;8.966;2022-09-01T15:32:11;2.97;;;2.60;;
23088;SDS011;11713;48.506;8.966;2022-09-01T15:34:38;3.65;;;2.80;;
23088;SDS011;11713;48.506;8.966;2022-09-01T15:37:04;2.90;;;2.70;;
23088;SDS011;11713;48.506;8.966;2022-09-01T15:39:31;2.83;;;2.60;;
23088;SDS011;11713;48.506;8.966;2022-09-01T15:41:57;3.35;;;2.78;;
23088;SDS011;11713;48.506;8.966;2022-09-01T15:44:23;2.70;;;2.50;;
23088;SDS011;11713;48.506;8.966;2022-09-01T15:46:58;2.90;;;2.65;;
23088;SDS011;11713;48.506;8.966;2022-09-01T15:49:31;4.13;;;2.97;;
23088;SDS011;11713;48.506;8.966;2022-09-01T15:52:10;2.92;;;2.72;;
23088;SDS011;11713;48.506;8.966;2022-09-01T15:54:41;3.38;;;3.00;;
23088;SDS011;11713;48.506;8.966;2022-09-01T15:57:07;3.65;;;3.05;;
23088;SDS011;11713;48.506;8.966;2022-09-01T15:59:33;4.80;;;3.22;;
23088;SDS011;11713;48.506;8.966;2022-09-01T16:01:59;2.90;;;2.70;;
23088;SDS011;11713;48.506;8.966;2022-09-01T16:04:30;3.17;;;2.92;;
23088;SDS011;11713;48.506;8.966;2022-09-01T16:07:03;2.90;;;2.70;;